createdAt,value
2022-09-21T00:01:57.823Z,100.00
2022-09-21T00:06:59.506Z,100.00
2022-09-21T00:12:02.433Z,100.00
2022-09-21T00:17:04.285Z,100.00
2022-09-21T00:22:07.167Z,100.00
2022-09-21T00:27:08.809Z,100.00
2022-09-21T00:32:10.470Z,100.00
2022-09-21T00:37:12.037Z,100.00
2022-09-21T00:42:21.677Z,100.00
2022-09-21T00:47:44.813Z,99.40
2022-09-21T00:52:53.091Z,100.00
2022-09-21T00:58:00.233Z,100.00
2022-09-21T01:03:03.740Z,100.00
2022-09-21T01:08:08.087Z,97.60
2022-09-21T01:13:41.866Z,99.71
2022-09-21T01:19:15.593Z,100.00
2022-09-21T01:24:22.918Z,97.45
2022-09-21T01:29:31.264Z,96.06
2022-09-21T01:34:48.531Z,95.55
2022-09-21T01:39:56.545Z,98.11
2022-09-21T01:45:03.409Z,99.13
2022-09-21T01:50:08.879Z,97.93
2022-09-21T01:55:28.487Z,99.91
2022-09-21T02:00:32.865Z,100.00
2022-09-21T02:05:34.471Z,97.64
2022-09-21T02:10:42.839Z,98.80
2022-09-21T02:16:07.206Z,97.55
2022-09-21T02:21:19.977Z,100.00
2022-09-21T02:26:32.007Z,100.00
2022-09-21T02:31:44.402Z,100.00
2022-09-21T02:37:01.282Z,100.00
2022-09-21T02:42:03.050Z,100.00
2022-09-21T02:47:13.651Z,100.00
2022-09-21T02:52:17.727Z,100.00
2022-09-21T02:57:21.952Z,100.00
2022-09-21T03:02:23.547Z,100.00
2022-09-21T03:07:25.089Z,99.00
2022-09-21T03:12:26.862Z,96.25
2022-09-21T03:17:28.429Z,96.94
2022-09-21T03:22:29.971Z,98.07
2022-09-21T03:27:31.532Z,96.09
2022-09-21T03:32:33.108Z,98.08
2022-09-21T03:37:38.012Z,97.14
2022-09-21T03:42:44.675Z,96.98
2022-09-21T03:47:46.648Z,96.23
2022-09-21T03:52:48.193Z,100.00
2022-09-21T03:57:49.752Z,100.00
2022-09-21T04:02:51.346Z,97.61
2022-09-21T04:07:55.035Z,99.33
2022-09-21T04:13:03.467Z,98.74
2022-09-21T04:18:05.935Z,100.00
2022-09-21T04:23:10.086Z,97.86
2022-09-21T04:28:11.644Z,97.87
2022-09-21T04:33:14.255Z,96.61
2022-09-21T04:38:15.896Z,95.88
2022-09-21T04:43:22.027Z,97.86
2022-09-21T04:48:25.253Z,100.00
2022-09-21T04:53:26.904Z,100.00
2022-09-21T04:58:28.532Z,100.00
2022-09-21T05:03:31.068Z,100.00
2022-09-21T05:08:51.182Z,100.00
2022-09-21T05:13:52.869Z,100.00
2022-09-21T05:18:57.430Z,100.00
2022-09-21T05:23:59.260Z,100.00
2022-09-21T05:29:01.236Z,100.00
2022-09-21T05:34:36.811Z,100.00
2022-09-21T05:39:38.906Z,100.00
2022-09-21T05:44:40.668Z,97.87
2022-09-21T05:49:57.968Z,98.23
2022-09-21T05:55:07.916Z,98.73
2022-09-21T06:00:17.995Z,97.55
2022-09-21T06:05:20.025Z,97.39
2022-09-21T06:10:21.889Z,96.86
2022-09-21T06:15:23.415Z,97.74
2022-09-21T06:20:25.151Z,98.31
2022-09-21T06:25:26.968Z,96.39
2022-09-21T06:30:28.605Z,95.93
2022-09-21T06:35:31.968Z,92.78
2022-09-21T06:40:36.281Z,90.97
2022-09-21T06:45:37.906Z,95.73
2022-09-21T06:50:39.552Z,92.12
2022-09-21T06:55:41.150Z,92.75
2022-09-21T07:00:42.797Z,93.46
2022-09-21T07:05:47.471Z,92.60
2022-09-21T07:10:49.059Z,91.65
2022-09-21T07:15:53.347Z,89.38
2022-09-21T07:20:55.043Z,89.72
2022-09-21T07:26:02.396Z,86.08
2022-09-21T07:31:15.342Z,86.75
2022-09-21T07:36:17.987Z,87.06
2022-09-21T07:41:20.324Z,86.65
2022-09-21T07:46:22.148Z,86.31
2022-09-21T07:51:24.659Z,86.12
2022-09-21T07:56:26.807Z,85.76
2022-09-21T08:01:30.305Z,83.95
2022-09-21T08:06:33.282Z,86.12
2022-09-21T08:11:37.694Z,84.86
2022-09-21T08:16:40.137Z,88.75
2022-09-21T08:21:41.911Z,86.58
2022-09-21T08:26:44.115Z,83.53
2022-09-21T08:31:46.832Z,83.22
2022-09-21T08:36:53.009Z,82.75
2022-09-21T08:42:38.764Z,83.01
2022-09-21T08:47:49.278Z,81.05
2022-09-21T08:52:54.245Z,80.48
2022-09-21T08:57:56.089Z,82.18
2022-09-21T09:03:26.613Z,77.27
2022-09-21T09:08:57.821Z,79.13
2022-09-21T09:14:32.276Z,74.70
2022-09-21T09:20:01.778Z,72.57
2022-09-21T09:25:07.336Z,75.91
2022-09-21T09:30:25.642Z,74.43
2022-09-21T09:35:52.248Z,76.58
2022-09-21T09:40:56.625Z,70.22
2022-09-21T09:46:35.537Z,70.26
2022-09-21T09:51:40.988Z,71.97
2022-09-21T09:56:44.037Z,71.69
2022-09-21T10:01:58.186Z,69.21
2022-09-21T10:07:00.679Z,66.50
2022-09-21T10:12:25.692Z,69.03
2022-09-21T10:17:28.172Z,66.40
2022-09-21T10:22:32.784Z,67.85
2022-09-21T10:27:36.277Z,69.16
2022-09-21T10:32:38.254Z,67.71
2022-09-21T10:37:41.741Z,68.70
2022-09-21T10:42:44.132Z,61.86
2022-09-21T10:47:52.679Z,62.19
2022-09-21T10:53:11.319Z,58.83
2022-09-21T10:58:14.623Z,59.60
2022-09-21T11:03:31.286Z,61.95
2022-09-21T11:08:41.053Z,61.98
2022-09-21T11:13:51.086Z,62.37
2022-09-21T11:19:00.091Z,62.32
2022-09-21T11:24:17.037Z,62.62
2022-09-21T11:29:28.932Z,62.89
2022-09-21T11:35:03.337Z,64.74
2022-09-21T11:40:32.791Z,65.70
2022-09-21T11:45:54.801Z,64.06
2022-09-21T11:51:18.622Z,60.86
2022-09-21T11:56:31.418Z,61.63
2022-09-21T12:02:00.268Z,63.43
2022-09-21T12:07:07.224Z,61.77
2022-09-21T12:12:22.325Z,62.81
2022-09-21T12:17:30.227Z,61.13
2022-09-21T12:22:36.014Z,61.60
2022-09-21T12:27:41.694Z,62.48
2022-09-21T12:33:18.886Z,59.23
2022-09-21T12:38:23.591Z,60.75
2022-09-21T12:43:35.640Z,56.38
2022-09-21T12:48:39.320Z,59.21
2022-09-21T12:53:50.866Z,58.74
2022-09-21T12:59:19.813Z,62.96
2022-09-21T13:04:31.097Z,64.46
2022-09-21T13:09:33.337Z,66.91
2022-09-21T13:14:37.541Z,68.94
2022-09-21T13:19:39.104Z,68.17
2022-09-21T13:24:42.606Z,67.87
2022-09-21T13:29:47.121Z,65.47
2022-09-21T13:34:50.979Z,64.72
2022-09-21T13:39:58.195Z,64.49
2022-09-21T13:45:24.640Z,64.51
2022-09-21T13:50:28.558Z,66.64
2022-09-21T13:55:40.912Z,59.95
2022-09-21T14:00:56.936Z,60.82
2022-09-21T14:06:34.557Z,59.21
2022-09-21T14:11:37.347Z,60.99
2022-09-21T14:16:39.252Z,61.40
2022-09-21T14:22:03.437Z,60.17
2022-09-21T14:27:28.310Z,60.75
2022-09-21T14:32:35.462Z,61.63
2022-09-21T14:37:50.566Z,63.34
2022-09-21T14:42:57.318Z,64.77
2022-09-21T14:48:30.492Z,66.52
2022-09-21T14:53:40.494Z,70.27
2022-09-21T14:58:48.375Z,72.49
2022-09-21T15:04:08.584Z,72.17
2022-09-21T15:09:59.360Z,75.51
2022-09-21T15:15:19.738Z,74.12
2022-09-21T15:20:24.214Z,77.32
2022-09-21T15:25:33.144Z,79.17
2022-09-21T15:30:45.957Z,79.61
2022-09-21T15:35:47.679Z,80.09
2022-09-21T15:40:50.865Z,80.18
2022-09-21T15:45:59.281Z,82.01
2022-09-21T15:51:30.824Z,79.59
2022-09-21T15:56:36.330Z,78.36
2022-09-21T16:01:47.639Z,79.30
2022-09-21T16:13:34.187Z,82.38
2022-09-21T16:18:45.463Z,83.88
2022-09-21T16:23:48.728Z,84.35
2022-09-21T16:28:58.207Z,84.89
2022-09-21T16:34:04.984Z,86.04
2022-09-21T16:39:12.811Z,87.30
2022-09-21T16:44:20.965Z,87.50
2022-09-21T16:49:30.142Z,88.61
2022-09-21T16:54:32.760Z,90.55
2022-09-21T16:59:34.729Z,94.02
2022-09-21T17:04:36.622Z,93.49
2022-09-21T17:09:47.683Z,93.65
2022-09-21T17:14:51.617Z,94.43
2022-09-21T17:19:54.002Z,95.29
2022-09-21T17:24:55.591Z,96.27
2022-09-21T17:29:57.151Z,93.91
2022-09-21T17:35:13.329Z,95.05
2022-09-21T17:40:15.274Z,94.10
2022-09-21T17:45:37.680Z,95.98
2022-09-21T17:50:39.413Z,95.53
2022-09-21T17:55:57.012Z,97.00
2022-09-21T18:01:04.630Z,97.71
2022-09-21T18:06:07.382Z,96.53
2022-09-21T18:11:33.749Z,97.26
2022-09-21T18:16:41.588Z,96.58
2022-09-21T18:21:47.447Z,97.25
2022-09-21T18:26:49.889Z,98.98
2022-09-21T18:31:57.843Z,100.00
2022-09-21T18:37:24.169Z,100.00
2022-09-21T18:42:40.072Z,100.00
2022-09-21T18:48:13.368Z,100.00
2022-09-21T18:53:45.081Z,100.00
2022-09-21T18:58:46.900Z,100.00
2022-09-21T19:03:49.766Z,100.00
2022-09-21T19:09:11.496Z,100.00
2022-09-21T19:14:38.438Z,100.00
2022-09-21T19:20:01.180Z,100.00
2022-09-21T19:25:12.426Z,100.00
2022-09-21T19:30:16.886Z,100.00
2022-09-21T19:35:27.748Z,100.00
2022-09-21T19:40:32.341Z,100.00
2022-09-21T19:45:55.937Z,100.00
2022-09-21T19:50:58.990Z,100.00
2022-09-21T19:56:20.313Z,100.00
2022-09-21T20:01:22.594Z,100.00
2022-09-21T20:06:29.889Z,100.00
2022-09-21T20:11:41.102Z,100.00
2022-09-21T20:16:49.885Z,100.00
2022-09-21T20:21:58.790Z,100.00
2022-09-21T20:27:02.987Z,100.00
2022-09-21T20:32:04.959Z,100.00
2022-09-21T20:37:13.564Z,100.00
2022-09-21T20:42:23.427Z,100.00
2022-09-21T20:47:25.166Z,100.00
2022-09-21T20:52:26.834Z,100.00
2022-09-21T20:57:28.440Z,100.00
2022-09-21T21:02:30.104Z,100.00
2022-09-21T21:07:31.692Z,100.00
2022-09-21T21:12:33.241Z,100.00
2022-09-21T21:17:37.996Z,100.00
2022-09-21T21:22:39.558Z,100.00
2022-09-21T21:27:41.271Z,100.00
2022-09-21T21:32:42.959Z,100.00
2022-09-21T21:37:45.403Z,100.00
2022-09-21T21:42:47.146Z,100.00
2022-09-21T21:47:48.672Z,100.00
2022-09-21T21:52:50.285Z,100.00
2022-09-21T21:57:51.979Z,100.00
2022-09-21T22:02:56.077Z,100.00
2022-09-21T22:07:57.730Z,100.00
2022-09-21T22:12:59.601Z,100.00
2022-09-21T22:18:01.187Z,100.00
2022-09-21T22:23:02.897Z,100.00
2022-09-21T22:28:04.977Z,100.00
2022-09-21T22:33:06.609Z,100.00
2022-09-21T22:38:11.855Z,100.00
2022-09-21T22:43:13.407Z,100.00
2022-09-21T22:48:15.051Z,100.00
2022-09-21T22:53:16.960Z,100.00
2022-09-21T22:58:18.643Z,100.00
2022-09-21T23:03:20.219Z,100.00
2022-09-21T23:08:21.724Z,100.00
2022-09-21T23:13:23.646Z,100.00
2022-09-21T23:18:25.299Z,100.00
2022-09-21T23:23:26.883Z,100.00
2022-09-21T23:28:28.677Z,100.00
2022-09-21T23:34:02.868Z,100.00
2022-09-21T23:39:07.179Z,100.00
2022-09-21T23:44:09.266Z,100.00
2022-09-21T23:49:11.084Z,100.00
2022-09-21T23:54:15.116Z,100.00
2022-09-21T23:59:16.706Z,100.00
